Jupiter — V3RL8 — position and weather

sailwx.info

Track history (hours):
 
Tides and Currents Weather Stations Pressure Air Temp Water Temp Dewpoint Dewpoint Depression Visibility Wind Speed Wind Dir Waves Ship Positions

Jupiter

Last reported at 2018-Jan-21 23:49 UTC. Time now 2018-Feb-25 15:07 UTC.
Position N 57°46' W 001°24'.
Warning: this ship's position is 34 days out of date.

Length 68 m; draft 5.8 m.

Type: Fishing. MMSI: 312261000.

Date/timePositionNaut miles runAvg speedWind from/ knotsBaromVisibWave heightAir tempDewpointWater temp
2018-Jan-21 23:49N 57°46' W 001°24'610.5
2018-Jan-21 23:17N 57°41' W 001°19'29710.0
2018-Jan-20 17:33N 53°10' E 002°14'1 9.7
2018-Jan-20 17:29N 53°10' E 002°13'610.3
2018-Jan-20 16:57N 53°09' E 002°03'3 6.8
2018-Jan-20 16:30N 53°09' E 001°58'3 5.6
2018-Jan-20 16:00N 53°10' E 001°54'2 3.5
2018-Jan-20 15:30N 53°11' E 001°55'0 0.5
2018-Jan-20 15:00N 53°11' E 001°55'610.8
2018-Jan-20 14:29N 53°06' E 001°59'611.1
2018-Jan-20 13:59N 53°02' E 002°04'87 9.0
2018-Jan-20 04:23N 51°35' E 002°18'512.3
2018-Jan-20 03:56N 51°31' E 002°12'512.5
2018-Jan-20 03:31N 51°27' E 002°07'612.6
2018-Jan-20 03:00N 51°22' E 002°01'612.7
2018-Jan-20 02:31N 51°16' E 001°55'612.9
2018-Jan-20 02:00N 51°12' E 001°48'713.1
2018-Jan-20 01:30N 51°07' E 001°41'712.9
2018-Jan-20 01:00N 51°02' E 001°36'6310.2
2018-Jan-19 18:49N 50°22' E 000°17'3 9.5
2018-Jan-19 18:30N 50°21' E 000°13'6 9.3
2018-Jan-19 17:53N 50°20' E 000°04'4 9.3
2018-Jan-19 17:30N 50°19' W 000°01'5 9.1
2018-Jan-19 17:00N 50°18' W 000°08'5 8.9
2018-Jan-19 16:27N 50°17' W 000°15'7710.7
2018-Jan-19 09:16N 49°56' W 002°10'413.5
2018-Jan-19 08:58N 49°55' W 002°16'1812.9
2018-Jan-19 07:34N 49°49' W 002°43'312.0
2018-Jan-19 07:20N 49°48' W 002°47'  
2018-Jan-12 15:00N 28°09' W 015°25'0 0.0
2018-Jan-12 14:30N 28°09' W 015°25'0 0.0
2018-Jan-12 14:00N 28°09' W 015°25'0 0.0
2018-Jan-12 13:30N 28°09' W 015°25'0 0.0
2018-Jan-12 13:00N 28°09' W 015°25'0 0.0
2018-Jan-12 12:31N 28°09' W 015°25'0 0.0
2018-Jan-12 12:00N 28°09' W 015°25'0 0.0
2018-Jan-12 11:31N 28°09' W 015°25'0 0.0
2018-Jan-12 11:00N 28°09' W 015°25'0 0.0
2018-Jan-12 10:31N 28°09' W 015°25'0 0.0
2018-Jan-12 10:01N 28°09' W 015°25'0 0.0
2018-Jan-12 09:31N 28°09' W 015°25'0 0.0
2018-Jan-12 09:01N 28°09' W 015°25'0 0.0
2018-Jan-12 08:30N 28°09' W 015°25'0 0.0
2018-Jan-12 08:01N 28°09' W 015°25'0 0.0
2018-Jan-12 07:31N 28°09' W 015°25'0 0.0
2018-Jan-12 07:01N 28°09' W 015°25'0 0.0
2018-Jan-12 06:30N 28°09' W 015°25'0 0.0
2018-Jan-12 06:01N 28°09' W 015°25'0 0.0
2018-Jan-12 05:30N 28°09' W 015°25'0 0.0
2018-Jan-12 05:00N 28°09' W 015°25'0 0.0
2018-Jan-12 04:29N 28°09' W 015°25'0 0.0
2018-Jan-12 04:00N 28°09' W 015°25'0 0.0
2018-Jan-12 03:30N 28°09' W 015°25'0 0.0
2018-Jan-12 03:00N 28°09' W 015°25'0 0.0
2018-Jan-12 02:29N 28°09' W 015°25'0 0.0
2018-Jan-12 02:00N 28°09' W 015°25'0 0.0
2018-Jan-12 01:30N 28°09' W 015°25'0 0.0
2018-Jan-12 01:00N 28°09' W 015°25'0 0.0
2018-Jan-12 00:30N 28°09' W 015°25'0 0.0
2018-Jan-11 23:58N 28°09' W 015°25'  
Track history (hours):
 
Tides and Currents Weather Stations Pressure Air Temp Water Temp Dewpoint Dewpoint Depression Visibility Wind Speed Wind Dir Waves Ship Positions

Jupiter

Last reported at 2018-Jan-21 23:49 UTC. Time now 2018-Feb-25 15:07 UTC.
Position N 57°46' W 001°24'.
Warning: this ship's position is 34 days out of date.

Length 68 m; draft 5.8 m.

Type: Fishing. MMSI: 312261000.

Date/timePositionNaut miles runAvg speedWind from/ knotsBaromVisibWave heightAir tempDewpointWater temp
2018-Jan-21 23:49N 57°46' W 001°24'610.5
2018-Jan-21 23:17N 57°41' W 001°19'29710.0
2018-Jan-20 17:33N 53°10' E 002°14'1 9.7
2018-Jan-20 17:29N 53°10' E 002°13'610.3
2018-Jan-20 16:57N 53°09' E 002°03'3 6.8
2018-Jan-20 16:30N 53°09' E 001°58'3 5.6
2018-Jan-20 16:00N 53°10' E 001°54'2 3.5
2018-Jan-20 15:30N 53°11' E 001°55'0 0.5
2018-Jan-20 15:00N 53°11' E 001°55'610.8
2018-Jan-20 14:29N 53°06' E 001°59'611.1
2018-Jan-20 13:59N 53°02' E 002°04'87 9.0
2018-Jan-20 04:23N 51°35' E 002°18'512.3
2018-Jan-20 03:56N 51°31' E 002°12'512.5
2018-Jan-20 03:31N 51°27' E 002°07'612.6
2018-Jan-20 03:00N 51°22' E 002°01'612.7
2018-Jan-20 02:31N 51°16' E 001°55'612.9
2018-Jan-20 02:00N 51°12' E 001°48'713.1
2018-Jan-20 01:30N 51°07' E 001°41'712.9
2018-Jan-20 01:00N 51°02' E 001°36'6310.2
2018-Jan-19 18:49N 50°22' E 000°17'3 9.5
2018-Jan-19 18:30N 50°21' E 000°13'6 9.3
2018-Jan-19 17:53N 50°20' E 000°04'4 9.3
2018-Jan-19 17:30N 50°19' W 000°01'5 9.1
2018-Jan-19 17:00N 50°18' W 000°08'5 8.9
2018-Jan-19 16:27N 50°17' W 000°15'7710.7
2018-Jan-19 09:16N 49°56' W 002°10'413.5
2018-Jan-19 08:58N 49°55' W 002°16'1812.9
2018-Jan-19 07:34N 49°49' W 002°43'312.0
2018-Jan-19 07:20N 49°48' W 002°47'  
2018-Jan-12 15:00N 28°09' W 015°25'0 0.0
2018-Jan-12 14:30N 28°09' W 015°25'0 0.0
2018-Jan-12 14:00N 28°09' W 015°25'0 0.0
2018-Jan-12 13:30N 28°09' W 015°25'0 0.0
2018-Jan-12 13:00N 28°09' W 015°25'0 0.0
2018-Jan-12 12:31N 28°09' W 015°25'0 0.0
2018-Jan-12 12:00N 28°09' W 015°25'0 0.0
2018-Jan-12 11:31N 28°09' W 015°25'0 0.0
2018-Jan-12 11:00N 28°09' W 015°25'0 0.0
2018-Jan-12 10:31N 28°09' W 015°25'0 0.0
2018-Jan-12 10:01N 28°09' W 015°25'0 0.0
2018-Jan-12 09:31N 28°09' W 015°25'0 0.0
2018-Jan-12 09:01N 28°09' W 015°25'0 0.0
2018-Jan-12 08:30N 28°09' W 015°25'0 0.0
2018-Jan-12 08:01N 28°09' W 015°25'0 0.0
2018-Jan-12 07:31N 28°09' W 015°25'0 0.0
2018-Jan-12 07:01N 28°09' W 015°25'0 0.0
2018-Jan-12 06:30N 28°09' W 015°25'0 0.0
2018-Jan-12 06:01N 28°09' W 015°25'0 0.0
2018-Jan-12 05:30N 28°09' W 015°25'0 0.0
2018-Jan-12 05:00N 28°09' W 015°25'0 0.0
2018-Jan-12 04:29N 28°09' W 015°25'0 0.0
2018-Jan-12 04:00N 28°09' W 015°25'0 0.0
2018-Jan-12 03:30N 28°09' W 015°25'0 0.0
2018-Jan-12 03:00N 28°09' W 015°25'0 0.0
2018-Jan-12 02:29N 28°09' W 015°25'0 0.0
2018-Jan-12 02:00N 28°09' W 015°25'0 0.0
2018-Jan-12 01:30N 28°09' W 015°25'0 0.0
2018-Jan-12 01:00N 28°09' W 015°25'0 0.0
2018-Jan-12 00:30N 28°09' W 015°25'0 0.0
2018-Jan-11 23:58N 28°09' W 015°25'  

Dump ship's entire track history